Time;durP1;ratioP1;P1;durP2;ratioP2;P2;SDS_P1;SDS_P2;PMS_P1;PMS_P2;Temp;Humidity;BMP_temperature;BMP_pressure;BME280_temperature;BME280_humidity;BME280_pressure;Samples;Min_cycle;Max_cycle;Signal;HPM_P1;HPM_P2
2024/03/14 00:00:03;;;;;;;0.77;0.73;;;;;;;11.77;49.34;99808.56;4472289;31;33339;-82
2024/03/14 00:02:38;;;;;;;2.50;2.30;;;;;;;12.08;47.73;99812.41;4499131;31;34733;-82
2024/03/14 00:05:08;;;;;;;1.87;1.08;;;;;;;12.14;47.16;99820.88;4460993;31;33681;-82
2024/03/14 00:07:36;;;;;;;8.93;1.90;;;;;;;11.73;47.69;99820.25;4492199;31;34451;-81
2024/03/14 00:10:05;;;;;;;1.90;1.50;;;;;;;11.93;47.32;99824.59;4478688;31;34114;-81
2024/03/14 00:12:33;;;;;;;6.43;3.03;;;;;;;12.11;46.87;99826.34;4483460;31;33779;-81
2024/03/14 00:15:01;;;;;;;3.47;2.33;;;;;;;12.09;47.17;99827.34;4456845;31;32592;-80
2024/03/14 00:17:29;;;;;;;1.20;1.12;;;;;;;12.06;47.22;99831.00;4493988;31;36512;-80
2024/03/14 00:20:00;;;;;;;1.48;1.37;;;;;;;11.76;48.62;99833.31;4478963;31;33095;-80
2024/03/14 00:22:28;;;;;;;1.00;0.98;;;;;;;11.82;48.78;99833.06;4472465;31;33894;-80
2024/03/14 00:24:57;;;;;;;0.45;0.45;;;;;;;11.74;48.95;99835.19;4476288;31;33560;-80
2024/03/14 00:27:25;;;;;;;2.33;1.37;;;;;;;11.41;50.12;99827.06;4478155;31;32650;-81
2024/03/14 00:29:55;;;;;;;0.93;0.93;;;;;;;11.57;49.50;99828.03;4477461;31;33874;-80
2024/03/14 00:32:25;;;;;;;1.27;1.25;;;;;;;11.87;47.87;99828.41;4460460;31;33536;-80
2024/03/14 00:34:53;;;;;;;1.85;1.75;;;;;;;11.62;48.59;99827.81;4475707;31;31373;-80
2024/03/14 00:37:20;;;;;;;2.67;0.80;;;;;;;11.60;49.25;99829.69;4492793;31;33917;-80
2024/03/14 00:39:48;;;;;;;2.17;2.03;;;;;;;11.54;49.34;99834.34;4478962;31;34235;-81
2024/03/14 00:42:16;;;;;;;1.33;1.27;;;;;;;11.61;48.02;99831.41;4477779;32;33900;-81
2024/03/14 00:44:45;;;;;;;0.98;0.77;;;;;;;11.64;47.80;99828.63;4478256;31;34154;-82
2024/03/14 00:47:12;;;;;;;6.10;2.72;;;;;;;11.74;47.15;99825.47;4477384;31;33574;-82
2024/03/14 00:49:42;;;;;;;2.33;2.17;;;;;;;11.47;47.80;99843.47;4491052;31;34033;-82
2024/03/14 00:52:09;;;;;;;1.52;1.42;;;;;;;11.45;47.85;99834.78;4476865;31;33676;-82
2024/03/14 00:54:38;;;;;;;1.65;1.55;;;;;;;11.26;48.35;99833.91;4474526;31;33530;-82
2024/03/14 00:57:06;;;;;;;0.88;0.55;;;;;;;11.28;48.12;99837.34;4489051;31;33480;-82
2024/03/14 00:59:34;;;;;;;3.60;2.62;;;;;;;11.26;48.37;99829.47;4492298;31;34694;-82
2024/03/14 01:02:02;;;;;;;1.15;1.15;;;;;;;11.29;48.09;99833.75;4489009;31;34465;-83
2024/03/14 01:04:30;;;;;;;1.02;0.95;;;;;;;11.09;48.85;99825.87;4476222;31;32665;-83
2024/03/14 01:06:58;;;;;;;1.50;1.40;;;;;;;11.01;49.10;99828.88;4477217;31;32781;-83
2024/03/14 01:09:27;;;;;;;1.55;1.45;;;;;;;10.80;50.01;99820.13;4490303;31;33997;-83
2024/03/14 01:11:55;;;;;;;2.83;2.62;;;;;;;10.89;49.91;99830.28;4475983;31;33068;-83
2024/03/14 01:14:23;;;;;;;7.62;4.43;;;;;;;10.76;50.21;99835.25;4475969;31;33777;-83
2024/03/14 01:16:51;;;;;;;1.50;1.15;;;;;;;10.88;49.57;99828.56;4463656;31;33717;-83
2024/03/14 01:19:19;;;;;;;1.40;0.88;;;;;;;10.64;50.06;99825.22;4488556;31;34747;-83
2024/03/14 01:21:47;;;;;;;1.62;1.08;;;;;;;10.79;49.58;99823.69;4465613;31;34304;-83
2024/03/14 01:24:15;;;;;;;0.98;0.95;;;;;;;10.78;49.72;99822.00;4463309;31;32076;-83
2024/03/14 01:26:43;;;;;;;2.80;1.95;;;;;;;10.72;49.50;99822.22;4478760;31;33554;-83
2024/03/14 01:29:11;;;;;;;1.45;0.85;;;;;;;10.55;50.13;99825.63;4477617;31;33373;-82
2024/03/14 01:31:39;;;;;;;1.52;1.42;;;;;;;10.30;50.39;99817.87;4492285;31;34146;-82
2024/03/14 01:34:07;;;;;;;3.00;2.20;;;;;;;10.52;49.92;99826.59;4475718;31;33997;-82
2024/03/14 01:36:39;;;;;;;1.77;1.67;;;;;;;10.60;49.51;99825.44;4475205;31;34032;-82
2024/03/14 01:39:10;;;;;;;1.37;1.27;;;;;;;10.36;49.90;99830.84;4486445;31;34662;-82
2024/03/14 01:41:39;;;;;;;3.25;2.00;;;;;;;10.23;50.32;99829.59;4478797;31;35319;-82
2024/03/14 01:44:07;;;;;;;3.28;2.55;;;;;;;10.22;50.26;99827.88;4476572;31;35881;-83
2024/03/14 01:46:35;;;;;;;1.83;1.73;;;;;;;10.12;50.74;99819.50;4480431;31;32597;-81
2024/03/14 01:49:02;;;;;;;0.88;0.88;;;;;;;10.25;50.37;99817.22;4492679;31;34666;-80
2024/03/14 01:51:31;;;;;;;2.60;0.60;;;;;;;10.22;50.31;99812.06;4467945;31;33020;-81
2024/03/14 01:53:59;;;;;;;1.17;1.17;;;;;;;10.28;50.03;99811.81;4478281;31;34291;-80
2024/03/14 01:56:27;;;;;;;0.82;0.82;;;;;;;10.18;50.22;99811.31;4474948;31;34253;-81
2024/03/14 01:58:55;;;;;;;1.30;1.02;;;;;;;10.32;50.07;99810.78;4476225;31;33867;-80
2024/03/14 02:01:23;;;;;;;2.37;1.58;;;;;;;10.00;51.23;99806.78;4477348;31;35057;-81
2024/03/14 02:04:08;;;;;;;2.05;0.95;;;;;;;10.10;50.54;99812.53;4477079;31;33967;-81
2024/03/14 02:06:52;;;;;;;1.73;1.62;;;;;;;10.24;50.14;99815.50;4475118;31;33396;-81
2024/03/14 02:09:23;;;;;;;0.90;0.90;;;;;;;9.81;51.25;99817.25;4476189;31;33990;-81
2024/03/14 02:11:52;;;;;;;1.65;1.55;;;;;;;10.05;50.76;99815.38;4492828;31;34173;-80
2024/03/14 02:14:20;;;;;;;2.53;1.55;;;;;;;9.73;51.16;99812.28;4480910;31;33359;-81
2024/03/14 02:16:49;;;;;;;2.30;1.50;;;;;;;9.84;50.90;99811.84;4490641;31;34493;-80
2024/03/14 02:19:17;;;;;;;3.20;1.58;;;;;;;9.86;50.85;99810.00;4478483;31;33223;-81
2024/03/14 02:21:45;;;;;;;2.12;1.35;;;;;;;9.98;50.38;99801.59;4478241;31;34291;-81
2024/03/14 02:24:12;;;;;;;1.15;1.08;;;;;;;10.06;50.25;99810.97;4477058;31;33661;-81
2024/03/14 02:26:40;;;;;;;4.12;1.52;;;;;;;9.93;50.62;99811.47;4481163;31;33772;-81
2024/03/14 02:29:09;;;;;;;1.30;1.25;;;;;;;9.96;50.61;99805.19;4476245;31;34230;-81
2024/03/14 02:31:37;;;;;;;2.00;1.48;;;;;;;9.91;50.65;99810.66;4478263;31;32613;-82
2024/03/14 02:34:05;;;;;;;6.90;1.98;;;;;;;9.77;51.26;99807.72;4466498;31;32880;-82
2024/03/14 02:36:33;;;;;;;3.22;0.98;;;;;;;9.88;50.85;99802.91;4480060;31;34149;-82
2024/03/14 02:39:02;;;;;;;1.45;1.35;;;;;;;9.87;50.91;99802.94;4478592;31;32771;-82
2024/03/14 02:41:30;;;;;;;5.03;1.40;;;;;;;9.72;51.29;99801.78;4490875;31;33767;-82
2024/03/14 02:43:58;;;;;;;0.95;0.95;;;;;;;9.71;50.98;99800.06;4475791;31;33110;-81
2024/03/14 02:46:26;;;;;;;2.75;2.00;;;;;;;9.81;50.84;99797.91;4478176;31;32404;-81
2024/03/14 02:48:54;;;;;;;1.58;1.45;;;;;;;9.99;50.47;99808.59;4466103;31;33080;-82
2024/03/14 02:51:21;;;;;;;1.08;1.08;;;;;;;9.72;51.43;99807.06;4476876;31;34370;-81
2024/03/14 02:53:49;;;;;;;0.85;0.85;;;;;;;9.86;50.56;99806.50;4491526;31;33064;-81
2024/03/14 02:56:18;;;;;;;1.40;1.33;;;;;;;9.41;51.94;99808.28;4489059;31;33855;-82
2024/03/14 02:58:45;;;;;;;0.73;0.73;;;;;;;9.29;52.27;99808.75;4478361;31;33177;-82
2024/03/14 03:01:13;;;;;;;1.12;1.12;;;;;;;8.97;53.96;99817.84;4476863;31;33228;-82
2024/03/14 03:03:41;;;;;;;0.80;0.80;;;;;;;9.22;52.94;99817.81;4493073;31;34214;-82
2024/03/14 03:06:12;;;;;;;1.55;0.62;;;;;;;9.29;52.70;99824.53;4478414;31;33050;-82
2024/03/14 03:08:44;;;;;;;;;;;;;;;9.33;52.50;99827.94;4470025;31;33370;-82
2024/03/14 03:11:12;;;;;;;0.28;0.28;;;;;;;9.38;52.09;99821.56;4477512;31;34437;-82
2024/03/14 03:13:40;;;;;;;0.82;0.82;;;;;;;9.18;53.10;99827.59;4465437;31;33683;-82
2024/03/14 03:16:08;;;;;;;2.53;1.77;;;;;;;9.19;53.03;99831.09;4479057;31;33780;-81
2024/03/14 03:18:38;;;;;;;0.52;0.52;;;;;;;9.21;53.00;99827.50;4477761;31;33118;-81
2024/03/14 03:21:06;;;;;;;1.20;1.20;;;;;;;9.20;52.91;99830.16;4494389;31;34150;-82
2024/03/14 03:23:34;;;;;;;1.55;1.08;;;;;;;9.44;52.32;99829.22;4479521;31;32684;-82
2024/03/14 03:26:05;;;;;;;1.52;1.42;;;;;;;9.13;52.87;99839.22;4466500;31;32571;-82
2024/03/14 03:28:35;;;;;;;2.65;2.20;;;;;;;9.18;52.74;99830.22;4490843;31;34283;-82
2024/03/14 03:31:08;;;;;;;0.30;0.28;;;;;;;9.16;52.48;99829.44;4490034;31;36226;-82
2024/03/14 03:33:36;;;;;;;2.25;2.05;;;;;;;9.24;52.36;99832.63;4477772;31;34061;-83
2024/03/14 03:36:04;;;;;;;3.10;1.92;;;;;;;9.25;52.07;99833.47;4493280;31;33488;-81
2024/03/14 03:38:33;;;;;;;5.18;1.37;;;;;;;9.21;51.99;99838.03;4476633;31;35121;-81
2024/03/14 03:41:02;;;;;;;0.88;0.88;;;;;;;9.25;52.14;99828.22;4478713;31;35448;-81
2024/03/14 03:43:30;;;;;;;1.87;1.77;;;;;;;9.11;52.82;99834.00;4476844;31;33089;-81
2024/03/14 03:45:58;;;;;;;2.53;2.33;;;;;;;9.21;52.54;99829.28;4491315;31;33566;-82
2024/03/14 03:48:27;;;;;;;4.05;1.90;;;;;;;9.00;53.29;99832.69;4475722;31;34694;-81
2024/03/14 03:50:54;;;;;;;2.00;1.90;;;;;;;9.27;52.53;99831.66;4473649;31;88611;-81
2024/03/14 03:53:22;;;;;;;2.20;2.00;;;;;;;9.19;52.72;99836.34;4464181;31;32278;-81
2024/03/14 03:55:50;;;;;;;0.93;0.93;;;;;;;9.25;52.24;99841.37;4476106;31;34131;-82
2024/03/14 03:58:18;;;;;;;0.30;0.30;;;;;;;9.16;52.70;99831.19;4490646;31;33867;-82
2024/03/14 04:00:45;;;;;;;1.05;1.00;;;;;;;9.10;52.79;99834.06;4476771;31;33138;-82
2024/03/14 04:03:16;;;;;;;6.25;2.97;;;;;;;9.18;52.66;99839.91;4448520;31;34706;-82
2024/03/14 04:05:45;;;;;;;3.28;1.58;;;;;;;9.11;52.87;99841.91;4491712;31;34542;-82
2024/03/14 04:08:16;;;;;;;2.90;1.75;;;;;;;9.22;52.75;99838.88;4477355;31;33901;-82
2024/03/14 04:10:44;;;;;;;1.47;1.37;;;;;;;9.26;52.76;99845.75;4477828;31;33480;-82
2024/03/14 04:13:15;;;;;;;2.08;1.62;;;;;;;9.17;53.14;99840.84;4478298;31;33204;-82
2024/03/14 04:15:43;;;;;;;1.75;0.80;;;;;;;9.27;52.61;99836.94;4479056;31;33536;-82
2024/03/14 04:18:11;;;;;;;2.33;1.98;;;;;;;9.18;52.93;99843.41;4477456;31;33624;-82
2024/03/14 04:20:38;;;;;;;1.83;1.70;;;;;;;9.05;53.58;99841.28;4477745;31;34331;-81
2024/03/14 04:23:06;;;;;;;1.52;1.42;;;;;;;9.04;53.43;99840.41;4490573;31;32992;-81
2024/03/14 04:25:35;;;;;;;0.80;0.80;;;;;;;9.03;53.63;99843.13;4488883;31;33101;-81
2024/03/14 04:28:03;;;;;;;1.08;0.82;;;;;;;9.02;53.85;99846.66;4491402;31;33983;-82
2024/03/14 04:30:31;;;;;;;1.05;1.05;;;;;;;9.03;53.71;99845.75;4476587;31;32993;-82
2024/03/14 04:32:59;;;;;;;1.55;1.37;;;;;;;8.94;54.06;99849.56;4476044;31;32986;-81
2024/03/14 04:35:27;;;;;;;5.80;2.55;;;;;;;8.98;54.20;99851.19;4490774;31;33737;-81
2024/03/14 04:37:55;;;;;;;3.67;2.00;;;;;;;8.86;54.82;99857.75;4472409;31;33933;-81
2024/03/14 04:40:23;;;;;;;5.78;2.92;;;;;;;8.82;55.18;99860.53;4477099;31;33432;-81
2024/03/14 04:42:53;;;;;;;2.72;2.53;;;;;;;8.88;54.96;99861.19;4488243;31;32652;-82
2024/03/14 04:45:21;;;;;;;0.45;0.45;;;;;;;8.79;55.32;99856.25;4477604;31;34098;-82
2024/03/14 04:47:50;;;;;;;2.37;1.70;;;;;;;8.78;55.55;99853.66;4479601;31;33764;-81
2024/03/14 04:50:21;;;;;;;1.35;1.30;;;;;;;8.58;56.14;99854.34;4464164;31;34345;-82
2024/03/14 04:52:49;;;;;;;1.48;1.37;;;;;;;8.69;55.62;99854.88;4463320;31;33172;-82
2024/03/14 04:55:17;;;;;;;1.25;1.20;;;;;;;8.64;55.52;99847.13;4463477;32;32830;-82
2024/03/14 04:57:45;;;;;;;4.87;2.92;;;;;;;8.66;55.70;99850.56;4475516;31;33867;-80
2024/03/14 05:02:49;;;;;;;0.62;0.55;;;;;;;8.77;55.02;99852.78;4487460;31;33552;-81
2024/03/14 05:05:17;;;;;;;0.73;0.73;;;;;;;8.79;55.06;99858.88;4489274;31;33542;-81
2024/03/14 05:07:48;;;;;;;1.25;0.60;;;;;;;8.80;54.96;99862.38;4491078;31;34750;-81
2024/03/14 05:10:19;;;;;;;2.17;1.48;;;;;;;8.66;55.33;99863.72;4487289;31;34754;-81
2024/03/14 05:12:49;;;;;;;2.25;1.83;;;;;;;8.71;54.65;99866.19;4476448;31;33639;-81
2024/03/14 05:15:17;;;;;;;0.98;0.98;;;;;;;8.73;54.97;99872.25;4478688;31;33662;-82
2024/03/14 05:17:47;;;;;;;1.42;1.33;;;;;;;8.64;55.21;99869.94;4481001;31;32910;-81
2024/03/14 05:20:16;;;;;;;10.50;2.28;;;;;;;8.51;55.91;99873.91;4461685;31;35841;-82
2024/03/14 05:22:44;;;;;;;0.80;0.80;;;;;;;8.57;55.57;99871.06;4465542;31;32486;-81
2024/03/14 05:25:12;;;;;;;2.15;1.42;;;;;;;8.40;56.26;99869.00;4476553;31;33093;-81
2024/03/14 05:27:47;;;;;;;0.77;0.77;;;;;;;8.56;55.37;99864.94;4490335;31;34496;-81
2024/03/14 05:30:18;;;;;;;4.20;1.40;;;;;;;8.57;55.47;99873.69;4481632;31;33735;-80
2024/03/14 05:32:47;;;;;;;2.45;1.85;;;;;;;8.54;55.88;99876.44;4480397;31;33240;-82
2024/03/14 05:35:15;;;;;;;2.03;1.83;;;;;;;8.57;55.54;99878.97;4479797;31;34554;-81
2024/03/14 05:37:43;;;;;;;0.20;0.20;;;;;;;8.56;55.11;99882.50;4480642;31;34669;-82
2024/03/14 05:40:12;;;;;;;1.70;1.60;;;;;;;8.60;55.47;99884.13;4491530;31;34994;-82
2024/03/14 05:42:40;;;;;;;2.67;1.50;;;;;;;8.60;55.40;99878.87;4464873;31;32752;-82
2024/03/14 05:45:11;;;;;;;0.62;0.55;;;;;;;8.62;55.38;99877.03;4478255;31;33775;-80
2024/03/14 05:47:39;;;;;;;5.05;2.25;;;;;;;8.71;55.42;99887.25;4489391;31;33986;-81
2024/03/14 05:50:09;;;;;;;1.15;1.15;;;;;;;8.76;55.16;99880.03;4470709;31;33330;-82
2024/03/14 05:52:40;;;;;;;3.42;2.58;;;;;;;9.03;54.45;99887.91;4474248;31;32942;-82
2024/03/14 05:55:10;;;;;;;2.85;2.65;;;;;;;9.10;53.91;99889.38;4476439;31;33962;-80
2024/03/14 05:57:39;;;;;;;2.30;0.93;;;;;;;9.16;53.90;99886.50;4478847;31;34782;-81
2024/03/14 06:00:12;;;;;;;2.70;2.45;;;;;;;9.30;53.58;99894.75;4492756;31;34428;-81
2024/03/14 06:02:41;;;;;;;0.70;0.70;;;;;;;9.63;52.59;99892.63;4481950;31;34136;-81
2024/03/14 06:05:09;;;;;;;1.75;1.65;;;;;;;9.63;52.60;99887.37;4480930;31;34124;-81
2024/03/14 06:07:38;;;;;;;4.87;2.87;;;;;;;9.44;52.94;99895.09;4491799;31;33880;-81
2024/03/14 06:10:07;;;;;;;1.48;1.15;;;;;;;9.56;52.83;99896.44;4476861;31;34385;-81
2024/03/14 06:12:37;;;;;;;2.60;2.45;;;;;;;9.57;53.26;99897.31;4466914;31;32581;-81
2024/03/14 06:15:09;;;;;;;2.08;1.98;;;;;;;9.49;53.25;99895.81;4490301;31;33264;-82
2024/03/14 06:17:43;;;;;;;1.67;0.70;;;;;;;9.54;53.37;99897.41;4478039;31;32627;-81
2024/03/14 06:20:11;;;;;;;2.42;2.25;;;;;;;9.72;52.71;99896.69;4480017;31;33742;-81
2024/03/14 06:22:39;;;;;;;8.90;3.95;;;;;;;9.87;52.55;99896.09;4488754;31;34294;-81
2024/03/14 06:25:07;;;;;;;2.80;1.73;;;;;;;9.82;51.83;99902.47;4479391;31;33909;-82
2024/03/14 06:27:35;;;;;;;4.32;3.37;;;;;;;10.11;51.25;99898.69;4477591;31;33526;-81
2024/03/14 06:30:09;;;;;;;4.05;3.00;;;;;;;10.37;50.00;99905.59;4489796;31;33819;-79
2024/03/14 06:32:40;;;;;;;1.20;0.73;;;;;;;10.37;50.33;99905.59;4477503;31;33651;-80
2024/03/14 06:35:09;;;;;;;2.17;2.00;;;;;;;10.41;49.87;99902.75;4476914;31;34220;-79
2024/03/14 06:37:37;;;;;;;1.45;1.35;;;;;;;10.53;49.86;99906.66;4470372;31;34983;-80
2024/03/14 06:40:05;;;;;;;2.60;1.15;;;;;;;10.82;49.56;99908.06;4490256;31;34697;-80
2024/03/14 06:42:33;;;;;;;1.52;1.17;;;;;;;10.88;49.48;99915.75;4478130;31;33347;-80
2024/03/14 06:45:04;;;;;;;1.90;1.80;;;;;;;10.77;49.24;99910.03;4464241;31;33210;-80
2024/03/14 06:47:36;;;;;;;7.87;1.25;;;;;;;10.90;49.20;99913.03;4479801;31;33176;-79
2024/03/14 06:50:05;;;;;;;1.87;1.50;;;;;;;11.18;49.36;99915.31;4488556;31;33904;-80
2024/03/14 06:52:34;;;;;;;3.40;2.15;;;;;;;11.25;49.33;99912.34;4480211;31;34742;-80
2024/03/14 06:55:03;;;;;;;2.47;1.98;;;;;;;11.26;49.28;99922.00;4477727;31;33148;-80
2024/03/14 06:57:31;;;;;;;1.95;1.83;;;;;;;11.29;48.38;99919.19;4476913;31;34380;-80
2024/03/14 07:00:09;;;;;;;2.17;2.08;;;;;;;11.64;48.43;99924.69;4491844;31;33657;-80
2024/03/14 07:02:41;;;;;;;0.73;0.73;;;;;;;12.02;47.25;99920.28;4493359;31;33579;-80
2024/03/14 07:05:14;;;;;;;1.02;0.95;;;;;;;11.96;46.67;99920.59;4478189;31;33883;-80
2024/03/14 07:07:47;;;;;;;0.90;0.90;;;;;;;11.89;46.51;99919.13;4467300;31;33115;-80
2024/03/14 07:10:16;;;;;;;1.60;1.47;;;;;;;12.08;46.55;99916.47;4478462;31;33872;-80
2024/03/14 07:12:47;;;;;;;1.80;1.65;;;;;;;12.13;46.42;99918.91;4463301;31;32558;-80
2024/03/14 07:15:17;;;;;;;1.90;1.73;;;;;;;12.19;45.68;99931.84;4476509;31;33606;-81
2024/03/14 07:17:46;;;;;;;0.47;0.47;;;;;;;12.38;44.47;99919.41;4479456;31;34001;-80
2024/03/14 07:20:18;;;;;;;3.22;2.92;;;;;;;12.26;43.51;99928.84;4477032;31;34204;-80
2024/03/14 07:22:46;;;;;;;1.90;1.58;;;;;;;12.25;44.43;99926.25;4488893;31;34012;-80
2024/03/14 07:25:17;;;;;;;3.55;1.42;;;;;;;12.36;43.60;99918.66;4478913;31;34072;-80
2024/03/14 07:27:48;;;;;;;1.77;1.67;;;;;;;12.64;43.90;99933.19;4476165;31;32977;-80
2024/03/14 07:30:16;;;;;;;0.85;0.85;;;;;;;12.40;44.53;99940.53;4475610;31;33373;-80
2024/03/14 07:32:47;;;;;;;1.12;1.12;;;;;;;12.39;45.20;99952.03;4491409;31;34330;-80
2024/03/14 07:35:15;;;;;;;2.72;0.75;;;;;;;12.44;44.04;99948.25;4478037;31;34617;-80
2024/03/14 07:37:47;;;;;;;1.30;1.02;;;;;;;12.44;44.34;99942.97;4475094;31;33796;-80
2024/03/14 07:40:18;;;;;;;1.17;1.08;;;;;;;12.42;44.29;99949.25;4480454;31;34452;-80
2024/03/14 07:42:46;;;;;;;1.15;1.15;;;;;;;12.59;44.30;99956.37;4479517;31;33735;-82
2024/03/14 07:45:17;;;;;;;2.67;1.77;;;;;;;12.45;44.14;99951.75;4462832;31;33622;-80
2024/03/14 07:47:48;;;;;;;0.28;0.28;;;;;;;12.71;43.61;99956.63;4478416;31;33925;-81
2024/03/14 07:50:17;;;;;;;2.50;1.00;;;;;;;12.92;43.94;99945.88;4490019;31;34124;-80
2024/03/14 07:52:44;;;;;;;2.30;1.73;;;;;;;12.88;43.94;99953.13;4475678;31;34030;-80
2024/03/14 07:55:16;;;;;;;5.45;2.33;;;;;;;13.08;43.86;99954.75;4465141;31;33940;-80
2024/03/14 07:57:46;;;;;;;7.68;2.12;;;;;;;12.88;44.10;99953.13;4477944;31;34096;-80
2024/03/14 08:00:15;;;;;;;15.75;2.75;;;;;;;12.91;44.49;99952.09;4465215;31;33939;-81
2024/03/14 08:02:54;;;;;;;1.45;1.30;;;;;;;13.30;44.00;99952.75;4491858;31;33541;-81
2024/03/14 08:05:31;;;;;;;2.00;1.70;;;;;;;13.67;44.56;99947.25;4479744;31;33473;-81
2024/03/14 08:08:02;;;;;;;2.35;1.65;;;;;;;13.56;42.73;99963.75;4481173;31;33234;-81
2024/03/14 08:10:46;;;;;;;1.55;1.30;;;;;;;13.38;42.84;99962.94;4491222;31;34082;-80
2024/03/14 08:13:21;;;;;;;4.50;2.42;;;;;;;13.53;42.22;99962.16;4472437;31;31989;-80
2024/03/14 08:15:53;;;;;;;0.55;0.55;;;;;;;13.61;42.18;99961.72;4492124;31;33748;-80
2024/03/14 08:18:23;;;;;;;1.37;1.27;;;;;;;14.13;41.30;99958.00;4477548;31;33605;-81
2024/03/14 08:20:57;;;;;;;0.20;0.20;;;;;;;14.23;41.12;99952.09;4476265;31;33810;-80
2024/03/14 08:23:26;;;;;;;6.72;1.45;;;;;;;14.20;41.45;99957.59;4489146;31;33599;-80
2024/03/14 08:25:56;;;;;;;2.08;1.87;;;;;;;14.35;40.41;99954.06;4476816;31;34738;-80
2024/03/14 08:28:23;;;;;;;1.58;1.48;;;;;;;14.25;41.02;99960.00;4489907;31;33843;-80
2024/03/14 08:30:51;;;;;;;1.50;1.45;;;;;;;14.66;39.66;99957.66;4489092;31;34749;-80
2024/03/14 08:33:22;;;;;;;10.00;1.65;;;;;;;14.62;40.29;99960.56;4466216;31;31902;-80
2024/03/14 08:35:52;;;;;;;5.37;1.95;;;;;;;14.63;39.23;99967.62;4489410;31;33846;-81
2024/03/14 08:38:20;;;;;;;3.35;1.90;;;;;;;14.51;38.54;99956.72;4486804;31;33688;-80
2024/03/14 08:40:48;;;;;;;3.58;1.55;;;;;;;14.72;38.85;99961.78;4477590;31;34867;-81
2024/03/14 08:43:16;;;;;;;4.05;1.67;;;;;;;14.44;40.14;99963.31;4469837;31;33969;-80
2024/03/14 08:45:44;;;;;;;12.02;4.03;;;;;;;14.71;39.75;99962.69;4490667;31;33943;-80
2024/03/14 08:48:12;;;;;;;1.95;1.67;;;;;;;14.88;38.70;99969.69;4478020;31;34598;-80
2024/03/14 08:50:40;;;;;;;1.50;1.40;;;;;;;14.60;38.94;99961.53;4476821;31;33889;-80
2024/03/14 08:53:12;;;;;;;0.20;0.20;;;;;;;14.77;38.81;99968.53;4479238;31;33158;-80
2024/03/14 08:55:57;;;;;;;2.58;0.88;;;;;;;15.07;39.24;99965.84;4479424;31;33915;-81
2024/03/14 08:58:29;;;;;;;1.55;1.25;;;;;;;15.13;39.00;99977.06;4489970;31;34715;-80
2024/03/14 09:00:59;;;;;;;4.55;2.20;;;;;;;14.81;39.47;99961.19;4478381;31;33391;-81
2024/03/14 09:03:27;;;;;;;2.53;1.60;;;;;;;15.06;40.12;99966.81;4477732;31;32505;-81
2024/03/14 09:05:55;;;;;;;4.45;2.50;;;;;;;15.46;39.46;99967.06;4493478;31;33736;-80
2024/03/14 09:08:24;;;;;;;1.23;1.23;;;;;;;14.73;38.47;99966.12;4477055;31;33879;-81
2024/03/14 09:10:53;;;;;;;3.10;1.58;;;;;;;14.82;38.53;99965.59;4468364;31;33636;-81
2024/03/14 09:13:21;;;;;;;2.10;1.85;;;;;;;14.94;38.22;99964.00;4479837;31;31948;-80
2024/03/14 09:15:50;;;;;;;1.23;1.12;;;;;;;15.17;39.34;99966.16;4492319;31;34369;-81
2024/03/14 09:18:24;;;;;;;2.55;1.83;;;;;;;15.36;38.15;99961.44;4491992;31;34015;-81
2024/03/14 09:20:55;;;;;;;2.22;1.42;;;;;;;15.83;37.38;99959.50;4481349;31;34735;-81
2024/03/14 09:23:25;;;;;;;1.52;1.42;;;;;;;15.73;36.41;99959.22;4478380;31;32559;-80
2024/03/14 09:25:55;;;;;;;1.92;1.75;;;;;;;16.15;35.91;99959.25;4477582;31;34179;-81
2024/03/14 09:28:26;;;;;;;0.82;0.77;;;;;;;15.96;36.48;99959.56;4463756;31;35288;-81
2024/03/14 09:30:57;;;;;;;2.65;1.58;;;;;;;16.21;34.51;99958.84;4479970;31;33858;-81
2024/03/14 09:33:27;;;;;;;1.27;1.17;;;;;;;16.60;34.62;99945.56;4479069;31;32614;-81
2024/03/14 09:35:55;;;;;;;1.90;1.70;;;;;;;16.43;32.87;99940.53;4475729;31;33886;-81
2024/03/14 09:38:23;;;;;;;2.53;1.92;;;;;;;16.43;34.56;99943.19;4478285;31;34689;-81
2024/03/14 09:40:51;;;;;;;2.05;1.10;;;;;;;16.77;34.28;99947.16;4477229;31;32814;-81
2024/03/14 09:43:28;;;;;;;1.15;1.08;;;;;;;17.31;32.70;99944.34;4483427;31;33930;-81
2024/03/14 09:45:56;;;;;;;3.03;2.75;;;;;;;16.90;34.02;99936.50;4479996;31;34006;-81
2024/03/14 09:48:28;;;;;;;3.08;1.27;;;;;;;17.36;32.00;99938.69;4476484;31;33854;-80
2024/03/14 09:50:56;;;;;;;3.65;1.80;;;;;;;17.40;31.95;99934.88;4480393;31;33011;-81
2024/03/14 09:53:28;;;;;;;2.60;2.40;;;;;;;16.67;31.75;99942.53;4492758;31;33504;-80
2024/03/14 09:55:55;;;;;;;0.90;0.90;;;;;;;16.68;31.56;99938.91;4479997;31;33766;-81
2024/03/14 09:58:24;;;;;;;2.92;1.17;;;;;;;16.96;30.97;99936.12;4466641;31;33773;-81
2024/03/14 10:00:54;;;;;;;1.83;1.60;;;;;;;17.38;31.30;99931.47;4491604;31;33917;-81
2024/03/14 10:03:24;;;;;;;1.37;1.12;;;;;;;17.81;30.35;99931.97;4490917;31;33206;-81
2024/03/14 10:05:55;;;;;;;1.15;0.55;;;;;;;17.38;31.75;99936.78;4483752;31;34653;-81
2024/03/14 10:08:27;;;;;;;5.05;1.17;;;;;;;17.37;31.28;99933.25;4475346;31;32935;-81
2024/03/14 10:10:55;;;;;;;1.87;1.77;;;;;;;17.65;30.14;99929.50;4477393;31;33072;-81
2024/03/14 10:13:26;;;;;;;1.20;1.10;;;;;;;17.86;29.63;99923.63;4479388;31;33447;-81
2024/03/14 10:15:55;;;;;;;;;;;;;;;17.97;29.21;99913.00;4493998;31;33877;-81
2024/03/14 10:18:25;;;;;;;0.55;0.55;;;;;;;17.75;29.82;99919.03;4478864;31;35064;-81
2024/03/14 10:20:53;;;;;;;0.85;0.80;;;;;;;17.81;30.03;99918.63;4481138;31;34414;-81
2024/03/14 10:23:22;;;;;;;0.93;0.93;;;;;;;17.81;28.25;99917.78;4482127;31;33983;-81
2024/03/14 10:25:53;;;;;;;1.95;0.45;;;;;;;17.82;29.35;99914.97;4478564;31;32529;-81
2024/03/14 10:28:28;;;;;;;1.00;0.80;;;;;;;18.33;28.92;99914.81;4478284;31;34725;-81
2024/03/14 10:31:05;;;;;;;3.62;0.98;;;;;;;18.40;29.85;99918.72;4490981;31;34056;-81
2024/03/14 10:33:34;;;;;;;1.23;1.12;;;;;;;18.29;28.44;99917.84;4478308;31;33387;-81
2024/03/14 10:36:02;;;;;;;1.80;1.60;;;;;;;18.35;28.27;99912.03;4482098;31;34240;-81
2024/03/14 10:38:35;;;;;;;2.40;1.95;;;;;;;18.43;28.21;99915.00;4488596;31;33938;-81
2024/03/14 10:41:09;;;;;;;9.00;2.85;;;;;;;18.49;28.43;99917.19;4478477;31;34300;-81
2024/03/14 10:43:40;;;;;;;1.27;1.15;;;;;;;18.48;28.39;99914.66;4466704;31;33809;-81
2024/03/14 10:46:18;;;;;;;2.40;1.08;;;;;;;18.53;28.36;99910.66;4476242;31;33487;-81
2024/03/14 10:48:47;;;;;;;1.17;1.08;;;;;;;18.45;27.60;99905.03;4475647;31;32534;-81
2024/03/14 10:51:17;;;;;;;1.55;1.27;;;;;;;18.48;28.08;99902.13;4477868;31;33878;-81
2024/03/14 10:53:49;;;;;;;3.00;1.00;;;;;;;18.90;27.65;99903.41;4491247;31;33236;-81
2024/03/14 10:56:22;;;;;;;1.92;1.65;;;;;;;18.67;27.17;99891.75;4477767;31;34205;-81
2024/03/14 10:58:54;;;;;;;2.15;1.00;;;;;;;18.35;26.94;99898.66;4476465;31;33601;-81
2024/03/14 11:01:24;;;;;;;1.02;0.95;;;;;;;18.92;27.67;99892.59;4475456;31;35117;-81
2024/03/14 11:03:52;;;;;;;1.45;0.75;;;;;;;18.74;27.78;99902.00;4490778;31;33543;-81
2024/03/14 11:06:24;;;;;;;1.30;0.47;;;;;;;18.19;28.20;99896.28;4479568;31;34430;-81
2024/03/14 11:08:53;;;;;;;0.75;0.75;;;;;;;18.28;27.97;99895.59;4484778;31;34022;-81
2024/03/14 11:11:22;;;;;;;0.90;0.90;;;;;;;18.60;26.62;99893.16;4476143;31;33664;-81
2024/03/14 11:13:51;;;;;;;0.45;0.45;;;;;;;19.20;25.80;99888.63;4479631;31;33594;-81
2024/03/14 11:16:23;;;;;;;1.30;1.20;;;;;;;19.01;27.02;99894.56;4477673;31;34286;-81
2024/03/14 11:18:59;;;;;;;4.55;1.40;;;;;;;18.81;26.77;99887.22;4477535;31;33966;-81
2024/03/14 11:21:34;;;;;;;1.73;1.35;;;;;;;18.83;26.82;99893.28;4493173;31;34452;-81
2024/03/14 11:24:09;;;;;;;0.50;0.50;;;;;;;18.46;27.47;99890.69;4479740;31;32870;-81
2024/03/14 11:26:44;;;;;;;0.70;0.57;;;;;;;18.47;26.94;99878.16;4491733;31;33568;-81
2024/03/14 11:29:15;;;;;;;2.50;0.95;;;;;;;18.47;27.21;99881.72;4490881;31;33995;-81
2024/03/14 11:31:46;;;;;;;0.88;0.60;;;;;;;17.72;28.87;99886.34;4477224;31;33810;-81
2024/03/14 11:34:18;;;;;;;2.60;1.12;;;;;;;17.66;28.65;99888.50;4492015;31;33136;-81
2024/03/14 11:36:50;;;;;;;1.48;1.37;;;;;;;18.08;29.38;99883.69;4489697;31;34533;-81
2024/03/14 11:39:23;;;;;;;;;;;;;;;18.35;27.71;99885.28;4489958;31;33411;-81
2024/03/14 11:42:10;;;;;;;2.65;1.33;;;;;;;18.57;27.46;99880.06;4489570;31;33785;-81
2024/03/14 11:44:42;;;;;;;0.82;0.82;;;;;;;18.27;28.51;99868.97;4475774;31;33045;-81
2024/03/14 11:47:14;;;;;;;0.85;0.85;;;;;;;18.48;27.54;99869.19;4478794;31;33492;-81
2024/03/14 11:49:53;;;;;;;0.80;0.80;;;;;;;18.71;27.43;99870.16;4491080;31;33654;-81